sensor_id;sensor_type;location;lat;lon;timestamp;P1;durP1;ratioP1;P2;durP2;ratioP2
64615;SDS011;51027;42.162;24.754;2022-08-19T00:00:27;16.10;;;8.35;;
64615;SDS011;51027;42.162;24.754;2022-08-19T00:10:15;16.95;;;8.55;;
64615;SDS011;51027;42.162;24.754;2022-08-19T00:15:36;19.48;;;8.65;;
64615;SDS011;51027;42.162;24.754;2022-08-19T00:18:24;16.90;;;8.32;;
64615;SDS011;51027;42.162;24.754;2022-08-19T00:21:00;16.63;;;7.90;;
64615;SDS011;51027;42.162;24.754;2022-08-19T00:23:27;17.25;;;8.68;;
64615;SDS011;51027;42.162;24.754;2022-08-19T00:25:52;17.88;;;7.72;;
64615;SDS011;51027;42.162;24.754;2022-08-19T00:28:19;17.13;;;8.13;;
64615;SDS011;51027;42.162;24.754;2022-08-19T00:30:45;18.27;;;7.93;;
64615;SDS011;51027;42.162;24.754;2022-08-19T00:33:11;17.80;;;7.80;;
64615;SDS011;51027;42.162;24.754;2022-08-19T00:39:16;18.55;;;7.85;;
64615;SDS011;51027;42.162;24.754;2022-08-19T00:45:27;15.77;;;7.53;;
64615;SDS011;51027;42.162;24.754;2022-08-19T00:48:17;17.85;;;7.82;;
64615;SDS011;51027;42.162;24.754;2022-08-19T00:54:31;16.48;;;6.95;;
64615;SDS011;51027;42.162;24.754;2022-08-19T00:57:34;16.92;;;7.05;;
64615;SDS011;51027;42.162;24.754;2022-08-19T01:00:12;16.67;;;7.00;;
64615;SDS011;51027;42.162;24.754;2022-08-19T01:02:51;14.80;;;6.85;;
64615;SDS011;51027;42.162;24.754;2022-08-19T01:06:00;15.85;;;7.07;;
64615;SDS011;51027;42.162;24.754;2022-08-19T01:08:35;16.35;;;7.15;;
64615;SDS011;51027;42.162;24.754;2022-08-19T01:11:15;16.83;;;7.43;;
64615;SDS011;51027;42.162;24.754;2022-08-19T01:13:47;16.75;;;7.63;;
64615;SDS011;51027;42.162;24.754;2022-08-19T01:16:32;15.25;;;6.97;;
64615;SDS011;51027;42.162;24.754;2022-08-19T01:19:05;16.23;;;6.95;;
64615;SDS011;51027;42.162;24.754;2022-08-19T01:22:13;15.35;;;7.20;;
64615;SDS011;51027;42.162;24.754;2022-08-19T01:24:43;16.45;;;6.90;;
64615;SDS011;51027;42.162;24.754;2022-08-19T01:27:11;16.35;;;7.10;;
64615;SDS011;51027;42.162;24.754;2022-08-19T01:29:49;17.77;;;7.63;;
64615;SDS011;51027;42.162;24.754;2022-08-19T01:32:43;16.15;;;7.10;;
64615;SDS011;51027;42.162;24.754;2022-08-19T01:35:29;16.45;;;7.75;;
64615;SDS011;51027;42.162;24.754;2022-08-19T01:38:50;17.23;;;7.93;;
64615;SDS011;51027;42.162;24.754;2022-08-19T01:41:10;19.58;;;8.48;;
64615;SDS011;51027;42.162;24.754;2022-08-19T01:43:37;17.70;;;8.48;;
64615;SDS011;51027;42.162;24.754;2022-08-19T01:46:10;16.30;;;8.25;;
64615;SDS011;51027;42.162;24.754;2022-08-19T01:49:07;16.63;;;8.40;;
64615;SDS011;51027;42.162;24.754;2022-08-19T01:54:35;17.83;;;9.10;;
64615;SDS011;51027;42.162;24.754;2022-08-19T01:57:10;17.88;;;9.05;;
64615;SDS011;51027;42.162;24.754;2022-08-19T01:59:55;18.00;;;8.57;;
64615;SDS011;51027;42.162;24.754;2022-08-19T02:02:27;18.67;;;9.63;;
64615;SDS011;51027;42.162;24.754;2022-08-19T02:05:16;21.23;;;10.43;;
64615;SDS011;51027;42.162;24.754;2022-08-19T02:07:43;20.40;;;9.75;;
64615;SDS011;51027;42.162;24.754;2022-08-19T02:10:16;18.90;;;8.80;;
64615;SDS011;51027;42.162;24.754;2022-08-19T02:12:45;19.00;;;9.32;;
64615;SDS011;51027;42.162;24.754;2022-08-19T02:15:15;19.88;;;10.38;;
64615;SDS011;51027;42.162;24.754;2022-08-19T02:17:41;19.08;;;9.98;;
64615;SDS011;51027;42.162;24.754;2022-08-19T02:20:07;18.75;;;10.63;;
64615;SDS011;51027;42.162;24.754;2022-08-19T02:22:33;20.25;;;10.73;;
64615;SDS011;51027;42.162;24.754;2022-08-19T02:24:59;19.95;;;11.07;;
64615;SDS011;51027;42.162;24.754;2022-08-19T02:27:24;18.70;;;10.57;;
64615;SDS011;51027;42.162;24.754;2022-08-19T02:29:51;19.02;;;10.30;;
64615;SDS011;51027;42.162;24.754;2022-08-19T02:32:17;21.15;;;10.63;;
64615;SDS011;51027;42.162;24.754;2022-08-19T02:37:11;18.90;;;9.80;;
64615;SDS011;51027;42.162;24.754;2022-08-19T02:39:55;19.92;;;10.25;;
64615;SDS011;51027;42.162;24.754;2022-08-19T02:42:21;20.05;;;10.15;;
64615;SDS011;51027;42.162;24.754;2022-08-19T02:44:47;19.10;;;9.68;;
64615;SDS011;51027;42.162;24.754;2022-08-19T02:47:12;22.30;;;10.65;;
64615;SDS011;51027;42.162;24.754;2022-08-19T02:49:40;18.55;;;10.70;;
64615;SDS011;51027;42.162;24.754;2022-08-19T02:52:06;20.48;;;10.13;;
64615;SDS011;51027;42.162;24.754;2022-08-19T02:54:31;19.42;;;10.43;;
64615;SDS011;51027;42.162;24.754;2022-08-19T02:56:57;21.20;;;10.25;;
64615;SDS011;51027;42.162;24.754;2022-08-19T02:59:23;20.70;;;11.02;;
64615;SDS011;51027;42.162;24.754;2022-08-19T03:01:50;18.58;;;9.45;;
64615;SDS011;51027;42.162;24.754;2022-08-19T03:04:16;20.20;;;10.32;;
64615;SDS011;51027;42.162;24.754;2022-08-19T03:06:42;19.58;;;9.85;;
64615;SDS011;51027;42.162;24.754;2022-08-19T03:09:10;21.73;;;11.30;;
64615;SDS011;51027;42.162;24.754;2022-08-19T03:11:37;19.73;;;10.00;;
64615;SDS011;51027;42.162;24.754;2022-08-19T03:14:03;22.88;;;9.90;;
64615;SDS011;51027;42.162;24.754;2022-08-19T03:16:33;22.33;;;10.68;;
64615;SDS011;51027;42.162;24.754;2022-08-19T03:19:04;20.35;;;9.73;;
64615;SDS011;51027;42.162;24.754;2022-08-19T03:21:31;19.35;;;9.32;;
64615;SDS011;51027;42.162;24.754;2022-08-19T03:24:00;20.98;;;11.05;;
64615;SDS011;51027;42.162;24.754;2022-08-19T03:26:27;18.15;;;9.45;;
64615;SDS011;51027;42.162;24.754;2022-08-19T03:28:54;19.60;;;9.40;;
64615;SDS011;51027;42.162;24.754;2022-08-19T03:31:21;20.30;;;9.75;;
64615;SDS011;51027;42.162;24.754;2022-08-19T03:33:48;18.65;;;9.68;;
64615;SDS011;51027;42.162;24.754;2022-08-19T03:36:24;22.08;;;10.85;;
64615;SDS011;51027;42.162;24.754;2022-08-19T03:38:53;20.15;;;9.98;;
64615;SDS011;51027;42.162;24.754;2022-08-19T03:41:22;20.95;;;9.82;;
64615;SDS011;51027;42.162;24.754;2022-08-19T03:43:49;19.05;;;9.98;;
64615;SDS011;51027;42.162;24.754;2022-08-19T03:46:16;20.55;;;9.52;;
64615;SDS011;51027;42.162;24.754;2022-08-19T03:48:45;21.38;;;10.77;;
64615;SDS011;51027;42.162;24.754;2022-08-19T03:53:59;21.27;;;10.55;;
64615;SDS011;51027;42.162;24.754;2022-08-19T03:56:26;19.17;;;10.10;;
64615;SDS011;51027;42.162;24.754;2022-08-19T03:58:53;18.75;;;9.93;;
64615;SDS011;51027;42.162;24.754;2022-08-19T04:01:22;23.77;;;10.23;;
64615;SDS011;51027;42.162;24.754;2022-08-19T04:03:51;22.17;;;10.80;;
64615;SDS011;51027;42.162;24.754;2022-08-19T04:06:20;21.80;;;10.52;;
64615;SDS011;51027;42.162;24.754;2022-08-19T04:08:48;23.55;;;10.73;;
64615;SDS011;51027;42.162;24.754;2022-08-19T04:11:16;20.40;;;10.07;;
64615;SDS011;51027;42.162;24.754;2022-08-19T04:13:46;23.42;;;10.85;;
64615;SDS011;51027;42.162;24.754;2022-08-19T04:16:11;19.90;;;9.85;;
64615;SDS011;51027;42.162;24.754;2022-08-19T04:18:38;20.35;;;10.52;;
64615;SDS011;51027;42.162;24.754;2022-08-19T04:21:05;19.48;;;9.65;;
64615;SDS011;51027;42.162;24.754;2022-08-19T04:23:33;18.83;;;10.25;;
64615;SDS011;51027;42.162;24.754;2022-08-19T04:26:02;23.88;;;10.43;;
64615;SDS011;51027;42.162;24.754;2022-08-19T04:28:28;23.60;;;9.88;;
64615;SDS011;51027;42.162;24.754;2022-08-19T04:30:54;19.20;;;9.48;;
64615;SDS011;51027;42.162;24.754;2022-08-19T04:33:21;20.48;;;9.60;;
64615;SDS011;51027;42.162;24.754;2022-08-19T04:35:49;21.00;;;10.27;;
64615;SDS011;51027;42.162;24.754;2022-08-19T04:38:17;20.67;;;9.25;;
64615;SDS011;51027;42.162;24.754;2022-08-19T04:40:46;20.67;;;9.35;;
64615;SDS011;51027;42.162;24.754;2022-08-19T04:43:32;18.80;;;9.18;;
64615;SDS011;51027;42.162;24.754;2022-08-19T04:46:03;19.35;;;9.38;;
64615;SDS011;51027;42.162;24.754;2022-08-19T04:48:30;20.45;;;10.63;;
64615;SDS011;51027;42.162;24.754;2022-08-19T04:50:56;21.23;;;10.20;;
64615;SDS011;51027;42.162;24.754;2022-08-19T04:53:24;22.63;;;11.43;;
64615;SDS011;51027;42.162;24.754;2022-08-19T04:56:03;21.45;;;10.75;;
64615;SDS011;51027;42.162;24.754;2022-08-19T04:58:32;21.63;;;10.90;;
64615;SDS011;51027;42.162;24.754;2022-08-19T05:00:58;21.65;;;12.23;;
64615;SDS011;51027;42.162;24.754;2022-08-19T05:03:24;22.17;;;11.60;;
64615;SDS011;51027;42.162;24.754;2022-08-19T05:05:50;23.10;;;13.52;;
64615;SDS011;51027;42.162;24.754;2022-08-19T05:08:19;21.40;;;13.07;;
64615;SDS011;51027;42.162;24.754;2022-08-19T05:10:47;23.73;;;13.63;;
64615;SDS011;51027;42.162;24.754;2022-08-19T05:13:15;22.38;;;12.65;;
64615;SDS011;51027;42.162;24.754;2022-08-19T05:15:43;23.85;;;13.80;;
64615;SDS011;51027;42.162;24.754;2022-08-19T05:18:09;34.42;;;16.20;;
64615;SDS011;51027;42.162;24.754;2022-08-19T05:20:54;21.27;;;11.15;;
64615;SDS011;51027;42.162;24.754;2022-08-19T05:23:38;21.73;;;10.75;;
64615;SDS011;51027;42.162;24.754;2022-08-19T05:26:04;23.02;;;10.82;;
64615;SDS011;51027;42.162;24.754;2022-08-19T05:28:30;22.02;;;9.95;;
64615;SDS011;51027;42.162;24.754;2022-08-19T05:30:55;19.88;;;9.50;;
64615;SDS011;51027;42.162;24.754;2022-08-19T05:33:21;20.08;;;8.95;;
64615;SDS011;51027;42.162;24.754;2022-08-19T05:35:48;19.48;;;9.30;;
64615;SDS011;51027;42.162;24.754;2022-08-19T05:38:15;18.17;;;8.55;;
64615;SDS011;51027;42.162;24.754;2022-08-19T05:40:44;16.95;;;8.18;;
64615;SDS011;51027;42.162;24.754;2022-08-19T05:43:14;20.65;;;8.60;;
64615;SDS011;51027;42.162;24.754;2022-08-19T05:45:41;18.48;;;8.73;;
64615;SDS011;51027;42.162;24.754;2022-08-19T05:48:07;18.55;;;8.40;;
64615;SDS011;51027;42.162;24.754;2022-08-19T05:50:36;20.08;;;8.95;;
64615;SDS011;51027;42.162;24.754;2022-08-19T05:53:05;17.80;;;7.85;;
64615;SDS011;51027;42.162;24.754;2022-08-19T05:55:31;18.10;;;8.65;;
64615;SDS011;51027;42.162;24.754;2022-08-19T05:57:57;17.60;;;8.55;;
64615;SDS011;51027;42.162;24.754;2022-08-19T06:00:22;19.77;;;9.20;;
64615;SDS011;51027;42.162;24.754;2022-08-19T06:02:48;18.80;;;8.15;;
64615;SDS011;51027;42.162;24.754;2022-08-19T06:05:13;19.00;;;8.98;;
64615;SDS011;51027;42.162;24.754;2022-08-19T06:07:39;18.98;;;9.20;;
64615;SDS011;51027;42.162;24.754;2022-08-19T06:10:06;19.88;;;9.68;;
64615;SDS011;51027;42.162;24.754;2022-08-19T06:12:34;19.20;;;10.10;;
64615;SDS011;51027;42.162;24.754;2022-08-19T06:15:01;21.27;;;9.88;;
64615;SDS011;51027;42.162;24.754;2022-08-19T06:17:29;19.33;;;9.27;;
64615;SDS011;51027;42.162;24.754;2022-08-19T06:19:55;17.85;;;8.98;;
64615;SDS011;51027;42.162;24.754;2022-08-19T06:22:21;21.08;;;9.40;;
64615;SDS011;51027;42.162;24.754;2022-08-19T06:24:47;19.33;;;9.30;;
64615;SDS011;51027;42.162;24.754;2022-08-19T06:27:12;21.27;;;8.80;;
64615;SDS011;51027;42.162;24.754;2022-08-19T06:29:38;18.05;;;8.82;;
64615;SDS011;51027;42.162;24.754;2022-08-19T06:32:03;18.70;;;9.00;;
64615;SDS011;51027;42.162;24.754;2022-08-19T06:34:30;18.42;;;8.20;;
64615;SDS011;51027;42.162;24.754;2022-08-19T06:36:58;16.30;;;7.93;;
64615;SDS011;51027;42.162;24.754;2022-08-19T06:39:30;17.35;;;8.35;;
64615;SDS011;51027;42.162;24.754;2022-08-19T06:44:25;18.15;;;8.57;;
64615;SDS011;51027;42.162;24.754;2022-08-19T06:46:55;20.35;;;8.98;;
64615;SDS011;51027;42.162;24.754;2022-08-19T06:49:22;18.00;;;8.38;;
64615;SDS011;51027;42.162;24.754;2022-08-19T06:51:48;17.38;;;8.88;;
64615;SDS011;51027;42.162;24.754;2022-08-19T06:54:15;18.67;;;8.57;;
64615;SDS011;51027;42.162;24.754;2022-08-19T06:56:42;19.40;;;9.18;;
64615;SDS011;51027;42.162;24.754;2022-08-19T06:59:11;17.40;;;8.53;;
64615;SDS011;51027;42.162;24.754;2022-08-19T07:01:41;17.33;;;8.20;;
64615;SDS011;51027;42.162;24.754;2022-08-19T07:04:12;16.70;;;8.07;;
64615;SDS011;51027;42.162;24.754;2022-08-19T07:06:40;16.20;;;8.32;;
64615;SDS011;51027;42.162;24.754;2022-08-19T07:09:07;17.77;;;8.23;;
64615;SDS011;51027;42.162;24.754;2022-08-19T07:11:33;16.48;;;7.97;;
64615;SDS011;51027;42.162;24.754;2022-08-19T07:13:59;16.77;;;7.60;;
64615;SDS011;51027;42.162;24.754;2022-08-19T07:16:25;16.40;;;7.70;;
64615;SDS011;51027;42.162;24.754;2022-08-19T07:18:52;17.75;;;8.40;;
64615;SDS011;51027;42.162;24.754;2022-08-19T07:21:20;19.13;;;7.97;;
64615;SDS011;51027;42.162;24.754;2022-08-19T07:23:54;18.00;;;7.95;;
64615;SDS011;51027;42.162;24.754;2022-08-19T07:28:46;16.33;;;8.07;;
64615;SDS011;51027;42.162;24.754;2022-08-19T07:31:14;17.10;;;7.80;;
64615;SDS011;51027;42.162;24.754;2022-08-19T07:33:44;16.10;;;7.32;;
64615;SDS011;51027;42.162;24.754;2022-08-19T07:36:12;16.52;;;7.55;;
64615;SDS011;51027;42.162;24.754;2022-08-19T07:38:40;19.37;;;8.10;;
64615;SDS011;51027;42.162;24.754;2022-08-19T07:41:11;17.70;;;8.15;;
64615;SDS011;51027;42.162;24.754;2022-08-19T07:43:39;16.58;;;7.50;;
64615;SDS011;51027;42.162;24.754;2022-08-19T07:46:05;16.25;;;7.45;;
64615;SDS011;51027;42.162;24.754;2022-08-19T07:48:31;16.88;;;7.72;;
64615;SDS011;51027;42.162;24.754;2022-08-19T07:50:58;19.77;;;8.48;;
64615;SDS011;51027;42.162;24.754;2022-08-19T07:53:29;17.88;;;7.65;;
64615;SDS011;51027;42.162;24.754;2022-08-19T07:55:56;16.65;;;7.72;;
64615;SDS011;51027;42.162;24.754;2022-08-19T07:58:29;16.60;;;8.05;;
64615;SDS011;51027;42.162;24.754;2022-08-19T08:00:59;16.48;;;8.07;;
64615;SDS011;51027;42.162;24.754;2022-08-19T08:03:26;18.17;;;7.70;;
64615;SDS011;51027;42.162;24.754;2022-08-19T08:06:12;17.25;;;8.32;;
64615;SDS011;51027;42.162;24.754;2022-08-19T08:08:58;15.73;;;7.78;;
64615;SDS011;51027;42.162;24.754;2022-08-19T08:11:43;16.85;;;7.40;;
64615;SDS011;51027;42.162;24.754;2022-08-19T08:14:19;17.73;;;7.90;;
64615;SDS011;51027;42.162;24.754;2022-08-19T08:16:48;18.38;;;7.53;;
64615;SDS011;51027;42.162;24.754;2022-08-19T08:19:16;16.45;;;7.90;;
64615;SDS011;51027;42.162;24.754;2022-08-19T08:21:42;15.90;;;7.78;;
64615;SDS011;51027;42.162;24.754;2022-08-19T08:24:08;16.38;;;7.50;;
64615;SDS011;51027;42.162;24.754;2022-08-19T08:26:34;16.15;;;7.60;;
64615;SDS011;51027;42.162;24.754;2022-08-19T08:29:00;16.55;;;7.13;;
64615;SDS011;51027;42.162;24.754;2022-08-19T08:31:26;16.50;;;7.70;;
64615;SDS011;51027;42.162;24.754;2022-08-19T08:33:53;16.08;;;7.22;;
64615;SDS011;51027;42.162;24.754;2022-08-19T08:36:18;17.58;;;7.55;;
64615;SDS011;51027;42.162;24.754;2022-08-19T08:38:44;15.40;;;7.03;;
64615;SDS011;51027;42.162;24.754;2022-08-19T08:41:22;16.73;;;7.68;;
64615;SDS011;51027;42.162;24.754;2022-08-19T08:44:14;15.85;;;7.68;;
64615;SDS011;51027;42.162;24.754;2022-08-19T08:46:49;17.55;;;9.82;;
64615;SDS011;51027;42.162;24.754;2022-08-19T08:52:00;14.77;;;6.95;;
64615;SDS011;51027;42.162;24.754;2022-08-19T08:54:55;15.90;;;7.43;;
64615;SDS011;51027;42.162;24.754;2022-08-19T09:00:32;15.52;;;7.55;;
64615;SDS011;51027;42.162;24.754;2022-08-19T09:16:27;19.42;;;7.82;;
64615;SDS011;51027;42.162;24.754;2022-08-19T09:18:55;19.13;;;7.80;;
64615;SDS011;51027;42.162;24.754;2022-08-19T09:21:24;15.82;;;7.68;;
64615;SDS011;51027;42.162;24.754;2022-08-19T09:23:51;15.80;;;6.90;;
64615;SDS011;51027;42.162;24.754;2022-08-19T09:26:18;16.98;;;8.25;;
64615;SDS011;51027;42.162;24.754;2022-08-19T09:28:46;14.80;;;6.82;;
64615;SDS011;51027;42.162;24.754;2022-08-19T09:31:14;17.63;;;7.68;;
64615;SDS011;51027;42.162;24.754;2022-08-19T09:33:43;16.38;;;7.10;;
64615;SDS011;51027;42.162;24.754;2022-08-19T09:36:10;17.38;;;7.85;;
64615;SDS011;51027;42.162;24.754;2022-08-19T09:41:06;16.30;;;7.88;;
64615;SDS011;51027;42.162;24.754;2022-08-19T09:43:33;18.13;;;8.00;;
64615;SDS011;51027;42.162;24.754;2022-08-19T09:46:01;16.60;;;7.30;;
64615;SDS011;51027;42.162;24.754;2022-08-19T09:51:02;16.27;;;7.00;;
64615;SDS011;51027;42.162;24.754;2022-08-19T09:53:33;15.45;;;6.68;;
64615;SDS011;51027;42.162;24.754;2022-08-19T09:55:59;14.13;;;6.80;;
64615;SDS011;51027;42.162;24.754;2022-08-19T09:58:24;17.27;;;7.70;;
64615;SDS011;51027;42.162;24.754;2022-08-19T10:00:53;15.05;;;6.85;;
64615;SDS011;51027;42.162;24.754;2022-08-19T10:03:20;15.75;;;6.88;;
64615;SDS011;51027;42.162;24.754;2022-08-19T10:05:45;16.10;;;7.53;;
64615;SDS011;51027;42.162;24.754;2022-08-19T10:08:14;14.88;;;7.05;;
64615;SDS011;51027;42.162;24.754;2022-08-19T10:10:45;17.52;;;7.15;;
64615;SDS011;51027;42.162;24.754;2022-08-19T10:13:11;15.10;;;6.75;;
64615;SDS011;51027;42.162;24.754;2022-08-19T10:15:37;15.85;;;6.50;;
64615;SDS011;51027;42.162;24.754;2022-08-19T10:18:06;14.70;;;6.70;;
64615;SDS011;51027;42.162;24.754;2022-08-19T10:20:32;14.00;;;6.57;;
64615;SDS011;51027;42.162;24.754;2022-08-19T10:23:00;14.60;;;6.93;;
64615;SDS011;51027;42.162;24.754;2022-08-19T10:25:29;15.15;;;6.80;;
64615;SDS011;51027;42.162;24.754;2022-08-19T10:27:54;13.90;;;6.65;;
64615;SDS011;51027;42.162;24.754;2022-08-19T10:30:20;15.45;;;6.97;;
64615;SDS011;51027;42.162;24.754;2022-08-19T10:32:47;14.52;;;6.30;;
64615;SDS011;51027;42.162;24.754;2022-08-19T10:35:12;16.25;;;6.93;;
64615;SDS011;51027;42.162;24.754;2022-08-19T10:37:38;16.30;;;6.93;;
64615;SDS011;51027;42.162;24.754;2022-08-19T10:40:05;14.85;;;7.15;;
64615;SDS011;51027;42.162;24.754;2022-08-19T10:42:32;16.77;;;7.40;;
64615;SDS011;51027;42.162;24.754;2022-08-19T10:44:58;13.63;;;6.43;;
64615;SDS011;51027;42.162;24.754;2022-08-19T10:47:24;14.95;;;7.30;;
64615;SDS011;51027;42.162;24.754;2022-08-19T10:49:49;15.13;;;7.00;;
64615;SDS011;51027;42.162;24.754;2022-08-19T10:52:33;16.65;;;6.88;;
64615;SDS011;51027;42.162;24.754;2022-08-19T10:55:03;14.48;;;6.65;;
64615;SDS011;51027;42.162;24.754;2022-08-19T10:57:48;16.25;;;6.97;;
64615;SDS011;51027;42.162;24.754;2022-08-19T11:00:13;16.70;;;7.05;;
64615;SDS011;51027;42.162;24.754;2022-08-19T11:02:39;15.15;;;6.55;;
64615;SDS011;51027;42.162;24.754;2022-08-19T11:05:06;14.77;;;6.80;;
64615;SDS011;51027;42.162;24.754;2022-08-19T11:07:34;15.00;;;6.65;;
64615;SDS011;51027;42.162;24.754;2022-08-19T11:10:01;15.85;;;6.90;;
64615;SDS011;51027;42.162;24.754;2022-08-19T11:12:28;15.20;;;6.50;;
64615;SDS011;51027;42.162;24.754;2022-08-19T11:14:53;15.50;;;6.35;;
64615;SDS011;51027;42.162;24.754;2022-08-19T11:17:19;15.35;;;6.43;;
64615;SDS011;51027;42.162;24.754;2022-08-19T11:19:45;15.63;;;5.97;;
64615;SDS011;51027;42.162;24.754;2022-08-19T11:22:13;14.45;;;6.15;;
64615;SDS011;51027;42.162;24.754;2022-08-19T11:24:38;15.00;;;6.05;;
64615;SDS011;51027;42.162;24.754;2022-08-19T11:27:05;15.10;;;6.57;;
64615;SDS011;51027;42.162;24.754;2022-08-19T11:29:34;14.50;;;6.20;;
64615;SDS011;51027;42.162;24.754;2022-08-19T11:32:03;15.00;;;5.80;;
64615;SDS011;51027;42.162;24.754;2022-08-19T11:34:37;14.80;;;5.55;;
64615;SDS011;51027;42.162;24.754;2022-08-19T11:37:03;14.50;;;5.78;;
64615;SDS011;51027;42.162;24.754;2022-08-19T11:39:31;13.40;;;5.40;;
64615;SDS011;51027;42.162;24.754;2022-08-19T11:41:58;13.93;;;6.00;;
64615;SDS011;51027;42.162;24.754;2022-08-19T11:44:26;16.30;;;7.20;;
64615;SDS011;51027;42.162;24.754;2022-08-19T11:46:55;14.70;;;6.38;;
64615;SDS011;51027;42.162;24.754;2022-08-19T11:49:21;14.27;;;6.10;;
64615;SDS011;51027;42.162;24.754;2022-08-19T11:51:47;14.07;;;5.95;;
64615;SDS011;51027;42.162;24.754;2022-08-19T11:54:15;15.65;;;6.50;;
64615;SDS011;51027;42.162;24.754;2022-08-19T11:56:42;16.20;;;6.55;;
64615;SDS011;51027;42.162;24.754;2022-08-19T11:59:08;16.38;;;6.75;;
64615;SDS011;51027;42.162;24.754;2022-08-19T12:01:35;17.98;;;6.72;;
64615;SDS011;51027;42.162;24.754;2022-08-19T12:04:01;14.13;;;6.63;;
64615;SDS011;51027;42.162;24.754;2022-08-19T12:06:29;16.85;;;6.55;;
64615;SDS011;51027;42.162;24.754;2022-08-19T12:11:24;15.40;;;6.70;;
64615;SDS011;51027;42.162;24.754;2022-08-19T12:13:50;12.88;;;6.28;;
64615;SDS011;51027;42.162;24.754;2022-08-19T12:16:18;15.55;;;6.38;;
64615;SDS011;51027;42.162;24.754;2022-08-19T12:18:46;15.52;;;6.65;;
64615;SDS011;51027;42.162;24.754;2022-08-19T12:21:15;14.23;;;6.10;;
64615;SDS011;51027;42.162;24.754;2022-08-19T12:23:43;15.23;;;6.60;;
64615;SDS011;51027;42.162;24.754;2022-08-19T12:26:12;14.55;;;6.60;;
64615;SDS011;51027;42.162;24.754;2022-08-19T12:28:37;14.68;;;6.40;;
64615;SDS011;51027;42.162;24.754;2022-08-19T12:31:03;15.95;;;6.88;;
64615;SDS011;51027;42.162;24.754;2022-08-19T12:33:29;15.23;;;6.28;;
64615;SDS011;51027;42.162;24.754;2022-08-19T12:35:59;14.50;;;6.45;;
64615;SDS011;51027;42.162;24.754;2022-08-19T12:38:26;15.13;;;6.10;;
64615;SDS011;51027;42.162;24.754;2022-08-19T12:40:52;14.60;;;6.13;;
64615;SDS011;51027;42.162;24.754;2022-08-19T12:43:18;14.57;;;6.32;;
64615;SDS011;51027;42.162;24.754;2022-08-19T12:45:45;14.60;;;6.15;;
64615;SDS011;51027;42.162;24.754;2022-08-19T12:48:11;14.65;;;5.93;;
64615;SDS011;51027;42.162;24.754;2022-08-19T12:50:39;16.05;;;6.18;;
64615;SDS011;51027;42.162;24.754;2022-08-19T12:53:09;14.48;;;6.20;;
64615;SDS011;51027;42.162;24.754;2022-08-19T12:55:35;13.48;;;5.82;;
64615;SDS011;51027;42.162;24.754;2022-08-19T12:58:01;13.10;;;6.30;;
64615;SDS011;51027;42.162;24.754;2022-08-19T13:00:26;14.30;;;6.13;;
64615;SDS011;51027;42.162;24.754;2022-08-19T13:02:52;14.63;;;5.75;;
64615;SDS011;51027;42.162;24.754;2022-08-19T13:05:22;14.60;;;6.07;;
64615;SDS011;51027;42.162;24.754;2022-08-19T13:07:50;14.98;;;6.38;;
64615;SDS011;51027;42.162;24.754;2022-08-19T13:10:18;14.70;;;6.20;;
64615;SDS011;51027;42.162;24.754;2022-08-19T13:12:47;14.77;;;6.00;;
64615;SDS011;51027;42.162;24.754;2022-08-19T13:15:14;14.32;;;6.32;;
64615;SDS011;51027;42.162;24.754;2022-08-19T13:17:45;13.30;;;5.55;;
64615;SDS011;51027;42.162;24.754;2022-08-19T13:20:12;14.75;;;5.80;;
64615;SDS011;51027;42.162;24.754;2022-08-19T13:22:37;13.02;;;5.63;;
64615;SDS011;51027;42.162;24.754;2022-08-19T13:25:04;15.88;;;6.68;;
64615;SDS011;51027;42.162;24.754;2022-08-19T13:27:31;12.82;;;5.68;;
64615;SDS011;51027;42.162;24.754;2022-08-19T13:29:57;14.40;;;6.35;;
64615;SDS011;51027;42.162;24.754;2022-08-19T13:32:44;15.20;;;6.32;;
64615;SDS011;51027;42.162;24.754;2022-08-19T13:35:28;13.77;;;6.20;;
64615;SDS011;51027;42.162;24.754;2022-08-19T13:37:53;14.65;;;6.25;;
64615;SDS011;51027;42.162;24.754;2022-08-19T13:40:20;13.48;;;5.68;;
64615;SDS011;51027;42.162;24.754;2022-08-19T13:42:50;14.30;;;7.20;;
64615;SDS011;51027;42.162;24.754;2022-08-19T13:45:18;13.38;;;6.38;;
64615;SDS011;51027;42.162;24.754;2022-08-19T13:47:46;17.27;;;6.75;;
64615;SDS011;51027;42.162;24.754;2022-08-19T13:50:13;14.93;;;5.80;;
64615;SDS011;51027;42.162;24.754;2022-08-19T13:52:40;15.38;;;6.25;;
64615;SDS011;51027;42.162;24.754;2022-08-19T13:55:06;14.07;;;6.25;;
64615;SDS011;51027;42.162;24.754;2022-08-19T13:57:34;15.82;;;6.78;;
64615;SDS011;51027;42.162;24.754;2022-08-19T14:00:00;15.10;;;6.20;;
64615;SDS011;51027;42.162;24.754;2022-08-19T14:02:26;13.68;;;6.45;;
64615;SDS011;51027;42.162;24.754;2022-08-19T14:04:52;13.93;;;5.75;;
64615;SDS011;51027;42.162;24.754;2022-08-19T14:07:17;13.75;;;5.90;;
64615;SDS011;51027;42.162;24.754;2022-08-19T14:09:43;14.00;;;5.82;;
64615;SDS011;51027;42.162;24.754;2022-08-19T14:12:09;15.32;;;5.97;;
64615;SDS011;51027;42.162;24.754;2022-08-19T14:14:37;16.60;;;6.30;;
64615;SDS011;51027;42.162;24.754;2022-08-19T14:17:06;13.90;;;6.13;;
64615;SDS011;51027;42.162;24.754;2022-08-19T14:19:34;14.38;;;6.55;;
64615;SDS011;51027;42.162;24.754;2022-08-19T14:22:00;14.32;;;6.18;;
64615;SDS011;51027;42.162;24.754;2022-08-19T14:24:26;14.50;;;6.47;;
64615;SDS011;51027;42.162;24.754;2022-08-19T14:26:52;13.70;;;6.35;;
64615;SDS011;51027;42.162;24.754;2022-08-19T14:29:17;14.77;;;6.28;;
64615;SDS011;51027;42.162;24.754;2022-08-19T14:31:43;14.85;;;6.60;;
64615;SDS011;51027;42.162;24.754;2022-08-19T14:34:08;15.80;;;6.95;;
64615;SDS011;51027;42.162;24.754;2022-08-19T14:36:35;14.93;;;5.75;;
64615;SDS011;51027;42.162;24.754;2022-08-19T14:39:02;17.13;;;7.55;;
64615;SDS011;51027;42.162;24.754;2022-08-19T14:41:28;14.63;;;7.00;;
64615;SDS011;51027;42.162;24.754;2022-08-19T14:43:55;13.68;;;6.20;;
64615;SDS011;51027;42.162;24.754;2022-08-19T14:46:23;16.67;;;7.55;;
64615;SDS011;51027;42.162;24.754;2022-08-19T14:51:16;14.68;;;6.30;;
64615;SDS011;51027;42.162;24.754;2022-08-19T14:53:42;16.30;;;6.57;;
64615;SDS011;51027;42.162;24.754;2022-08-19T14:56:16;14.70;;;6.22;;
64615;SDS011;51027;42.162;24.754;2022-08-19T14:58:44;15.07;;;6.20;;
64615;SDS011;51027;42.162;24.754;2022-08-19T15:01:10;14.40;;;6.05;;
64615;SDS011;51027;42.162;24.754;2022-08-19T15:03:37;13.48;;;6.07;;
64615;SDS011;51027;42.162;24.754;2022-08-19T15:06:04;13.45;;;6.30;;
64615;SDS011;51027;42.162;24.754;2022-08-19T15:08:31;14.48;;;6.13;;
64615;SDS011;51027;42.162;24.754;2022-08-19T15:11:00;14.18;;;6.15;;
64615;SDS011;51027;42.162;24.754;2022-08-19T15:13:27;14.32;;;5.85;;
64615;SDS011;51027;42.162;24.754;2022-08-19T15:15:53;15.23;;;6.15;;
64615;SDS011;51027;42.162;24.754;2022-08-19T15:18:20;15.55;;;6.18;;
64615;SDS011;51027;42.162;24.754;2022-08-19T15:20:47;14.20;;;6.03;;
64615;SDS011;51027;42.162;24.754;2022-08-19T15:23:14;14.63;;;6.43;;
64615;SDS011;51027;42.162;24.754;2022-08-19T15:25:40;20.90;;;9.45;;
64615;SDS011;51027;42.162;24.754;2022-08-19T15:28:06;20.50;;;12.73;;
64615;SDS011;51027;42.162;24.754;2022-08-19T15:30:32;15.45;;;6.22;;
64615;SDS011;51027;42.162;24.754;2022-08-19T15:32:58;15.40;;;6.47;;